sensor_id;sensor_type;location;lat;lon;timestamp;P1;durP1;ratioP1;P2;durP2;ratioP2
61250;SDS011;47126;47.508;8.590;2024-01-15T00:00:01;36.97;;;14.02;;
61250;SDS011;47126;47.508;8.590;2024-01-15T00:02:29;38.05;;;15.05;;
61250;SDS011;47126;47.508;8.590;2024-01-15T00:04:55;39.60;;;14.05;;
61250;SDS011;47126;47.508;8.590;2024-01-15T00:07:21;43.65;;;15.85;;
61250;SDS011;47126;47.508;8.590;2024-01-15T00:09:47;38.47;;;14.93;;
61250;SDS011;47126;47.508;8.590;2024-01-15T00:12:13;38.17;;;13.63;;
61250;SDS011;47126;47.508;8.590;2024-01-15T00:14:39;39.70;;;14.50;;
61250;SDS011;47126;47.508;8.590;2024-01-15T00:17:05;40.47;;;14.93;;
61250;SDS011;47126;47.508;8.590;2024-01-15T00:19:31;36.63;;;15.27;;
61250;SDS011;47126;47.508;8.590;2024-01-15T00:21:57;35.28;;;14.27;;
61250;SDS011;47126;47.508;8.590;2024-01-15T00:24:24;38.58;;;14.18;;
61250;SDS011;47126;47.508;8.590;2024-01-15T00:26:50;41.38;;;15.55;;
61250;SDS011;47126;47.508;8.590;2024-01-15T00:29:16;43.95;;;14.88;;
61250;SDS011;47126;47.508;8.590;2024-01-15T00:31:42;38.42;;;14.85;;
61250;SDS011;47126;47.508;8.590;2024-01-15T00:34:08;36.72;;;14.15;;
61250;SDS011;47126;47.508;8.590;2024-01-15T00:36:34;38.28;;;14.23;;
61250;SDS011;47126;47.508;8.590;2024-01-15T00:39:00;37.17;;;15.02;;
61250;SDS011;47126;47.508;8.590;2024-01-15T00:41:26;36.78;;;14.52;;
61250;SDS011;47126;47.508;8.590;2024-01-15T00:43:53;36.17;;;14.55;;
61250;SDS011;47126;47.508;8.590;2024-01-15T00:46:19;35.42;;;14.15;;
61250;SDS011;47126;47.508;8.590;2024-01-15T00:48:45;33.80;;;13.85;;
61250;SDS011;47126;47.508;8.590;2024-01-15T00:51:12;33.83;;;13.30;;
61250;SDS011;47126;47.508;8.590;2024-01-15T00:53:37;35.65;;;13.65;;
61250;SDS011;47126;47.508;8.590;2024-01-15T00:56:03;33.25;;;14.07;;
61250;SDS011;47126;47.508;8.590;2024-01-15T00:58:29;34.38;;;12.95;;
61250;SDS011;47126;47.508;8.590;2024-01-15T01:00:55;38.00;;;13.90;;
61250;SDS011;47126;47.508;8.590;2024-01-15T01:03:22;31.85;;;13.85;;
61250;SDS011;47126;47.508;8.590;2024-01-15T01:05:48;32.53;;;13.10;;
61250;SDS011;47126;47.508;8.590;2024-01-15T01:08:17;28.13;;;11.70;;
61250;SDS011;47126;47.508;8.590;2024-01-15T01:10:43;29.88;;;12.15;;
61250;SDS011;47126;47.508;8.590;2024-01-15T01:13:09;30.00;;;12.68;;
61250;SDS011;47126;47.508;8.590;2024-01-15T01:15:35;30.73;;;13.75;;
61250;SDS011;47126;47.508;8.590;2024-01-15T01:18:02;24.70;;;11.38;;
61250;SDS011;47126;47.508;8.590;2024-01-15T01:20:28;28.42;;;11.73;;
61250;SDS011;47126;47.508;8.590;2024-01-15T01:22:55;23.75;;;10.68;;
61250;SDS011;47126;47.508;8.590;2024-01-15T01:25:21;25.08;;;10.77;;
61250;SDS011;47126;47.508;8.590;2024-01-15T01:27:47;24.38;;;10.40;;
61250;SDS011;47126;47.508;8.590;2024-01-15T01:30:13;23.50;;;10.52;;
61250;SDS011;47126;47.508;8.590;2024-01-15T01:32:39;23.50;;;10.68;;
61250;SDS011;47126;47.508;8.590;2024-01-15T01:35:05;24.83;;;10.15;;
61250;SDS011;47126;47.508;8.590;2024-01-15T01:37:31;26.33;;;11.57;;
61250;SDS011;47126;47.508;8.590;2024-01-15T01:39:58;31.52;;;11.95;;
61250;SDS011;47126;47.508;8.590;2024-01-15T01:42:24;25.35;;;10.75;;
61250;SDS011;47126;47.508;8.590;2024-01-15T01:44:50;29.50;;;11.40;;
61250;SDS011;47126;47.508;8.590;2024-01-15T01:47:16;32.42;;;13.20;;
61250;SDS011;47126;47.508;8.590;2024-01-15T01:49:42;28.80;;;12.50;;
61250;SDS011;47126;47.508;8.590;2024-01-15T01:52:08;26.50;;;12.13;;
61250;SDS011;47126;47.508;8.590;2024-01-15T01:54:35;28.92;;;12.32;;
61250;SDS011;47126;47.508;8.590;2024-01-15T01:57:02;27.48;;;11.98;;
61250;SDS011;47126;47.508;8.590;2024-01-15T01:59:28;33.83;;;13.25;;
61250;SDS011;47126;47.508;8.590;2024-01-15T02:01:54;33.88;;;13.35;;
61250;SDS011;47126;47.508;8.590;2024-01-15T02:04:22;36.08;;;14.68;;
61250;SDS011;47126;47.508;8.590;2024-01-15T02:06:49;34.10;;;12.55;;
61250;SDS011;47126;47.508;8.590;2024-01-15T02:09:16;33.70;;;13.65;;
61250;SDS011;47126;47.508;8.590;2024-01-15T02:11:42;34.97;;;12.75;;
61250;SDS011;47126;47.508;8.590;2024-01-15T02:14:08;34.17;;;13.57;;
61250;SDS011;47126;47.508;8.590;2024-01-15T02:16:35;31.73;;;12.88;;
61250;SDS011;47126;47.508;8.590;2024-01-15T02:19:01;34.88;;;13.82;;
61250;SDS011;47126;47.508;8.590;2024-01-15T02:21:27;38.42;;;14.48;;
61250;SDS011;47126;47.508;8.590;2024-01-15T02:23:54;40.42;;;14.57;;
61250;SDS011;47126;47.508;8.590;2024-01-15T02:26:20;34.85;;;13.77;;
61250;SDS011;47126;47.508;8.590;2024-01-15T02:28:47;36.50;;;13.90;;
61250;SDS011;47126;47.508;8.590;2024-01-15T02:31:13;39.20;;;14.18;;
61250;SDS011;47126;47.508;8.590;2024-01-15T02:33:39;35.33;;;13.30;;
61250;SDS011;47126;47.508;8.590;2024-01-15T02:36:07;32.90;;;13.68;;
61250;SDS011;47126;47.508;8.590;2024-01-15T02:38:33;34.88;;;13.52;;
61250;SDS011;47126;47.508;8.590;2024-01-15T02:40:59;42.90;;;14.63;;
61250;SDS011;47126;47.508;8.590;2024-01-15T02:43:25;32.80;;;13.38;;
61250;SDS011;47126;47.508;8.590;2024-01-15T02:45:51;33.35;;;13.63;;
61250;SDS011;47126;47.508;8.590;2024-01-15T02:48:17;37.15;;;14.50;;
61250;SDS011;47126;47.508;8.590;2024-01-15T02:50:43;38.10;;;14.52;;
61250;SDS011;47126;47.508;8.590;2024-01-15T02:53:09;45.83;;;15.35;;
61250;SDS011;47126;47.508;8.590;2024-01-15T02:55:35;46.15;;;13.95;;
61250;SDS011;47126;47.508;8.590;2024-01-15T02:58:01;33.13;;;12.68;;
61250;SDS011;47126;47.508;8.590;2024-01-15T03:00:27;34.78;;;13.00;;
61250;SDS011;47126;47.508;8.590;2024-01-15T03:02:54;33.17;;;12.95;;
61250;SDS011;47126;47.508;8.590;2024-01-15T03:05:20;35.75;;;12.80;;
61250;SDS011;47126;47.508;8.590;2024-01-15T03:07:46;32.78;;;12.73;;
61250;SDS011;47126;47.508;8.590;2024-01-15T03:10:12;37.30;;;12.82;;
61250;SDS011;47126;47.508;8.590;2024-01-15T03:12:38;34.17;;;11.88;;
61250;SDS011;47126;47.508;8.590;2024-01-15T03:15:04;29.63;;;12.27;;
61250;SDS011;47126;47.508;8.590;2024-01-15T03:17:31;32.83;;;13.02;;
61250;SDS011;47126;47.508;8.590;2024-01-15T03:19:57;31.38;;;11.70;;
61250;SDS011;47126;47.508;8.590;2024-01-15T03:22:23;36.45;;;13.02;;
61250;SDS011;47126;47.508;8.590;2024-01-15T03:24:49;34.25;;;11.10;;
61250;SDS011;47126;47.508;8.590;2024-01-15T03:27:15;33.70;;;12.07;;
61250;SDS011;47126;47.508;8.590;2024-01-15T03:29:41;32.22;;;11.70;;
61250;SDS011;47126;47.508;8.590;2024-01-15T03:32:07;31.27;;;11.82;;
61250;SDS011;47126;47.508;8.590;2024-01-15T03:34:33;35.00;;;11.63;;
61250;SDS011;47126;47.508;8.590;2024-01-15T03:36:59;29.35;;;11.35;;
61250;SDS011;47126;47.508;8.590;2024-01-15T03:39:25;35.22;;;11.75;;
61250;SDS011;47126;47.508;8.590;2024-01-15T03:41:51;30.27;;;12.57;;
61250;SDS011;47126;47.508;8.590;2024-01-15T03:44:17;31.10;;;12.02;;
61250;SDS011;47126;47.508;8.590;2024-01-15T03:46:43;26.00;;;10.77;;
61250;SDS011;47126;47.508;8.590;2024-01-15T03:49:09;32.40;;;11.25;;
61250;SDS011;47126;47.508;8.590;2024-01-15T03:51:35;26.65;;;9.85;;
61250;SDS011;47126;47.508;8.590;2024-01-15T03:54:01;30.33;;;10.15;;
61250;SDS011;47126;47.508;8.590;2024-01-15T03:56:27;27.58;;;10.15;;
61250;SDS011;47126;47.508;8.590;2024-01-15T03:58:55;29.40;;;10.85;;
61250;SDS011;47126;47.508;8.590;2024-01-15T04:01:21;26.52;;;10.50;;
61250;SDS011;47126;47.508;8.590;2024-01-15T04:03:47;28.02;;;10.45;;
61250;SDS011;47126;47.508;8.590;2024-01-15T04:06:13;30.40;;;10.77;;
61250;SDS011;47126;47.508;8.590;2024-01-15T04:08:39;30.08;;;11.43;;
61250;SDS011;47126;47.508;8.590;2024-01-15T04:11:05;31.92;;;9.82;;
61250;SDS011;47126;47.508;8.590;2024-01-15T04:13:34;31.15;;;11.20;;
61250;SDS011;47126;47.508;8.590;2024-01-15T04:16:00;31.27;;;11.45;;
61250;SDS011;47126;47.508;8.590;2024-01-15T04:18:26;33.53;;;11.40;;
61250;SDS011;47126;47.508;8.590;2024-01-15T04:20:53;31.75;;;12.20;;
61250;SDS011;47126;47.508;8.590;2024-01-15T04:23:19;32.65;;;10.98;;
61250;SDS011;47126;47.508;8.590;2024-01-15T04:25:45;28.58;;;10.75;;
61250;SDS011;47126;47.508;8.590;2024-01-15T04:28:11;32.33;;;11.73;;
61250;SDS011;47126;47.508;8.590;2024-01-15T04:30:37;26.63;;;10.75;;
61250;SDS011;47126;47.508;8.590;2024-01-15T04:33:03;29.45;;;10.80;;
61250;SDS011;47126;47.508;8.590;2024-01-15T04:35:32;26.55;;;9.30;;
61250;SDS011;47126;47.508;8.590;2024-01-15T04:37:58;29.45;;;12.00;;
61250;SDS011;47126;47.508;8.590;2024-01-15T04:40:24;31.00;;;11.32;;
61250;SDS011;47126;47.508;8.590;2024-01-15T04:42:52;32.95;;;11.10;;
61250;SDS011;47126;47.508;8.590;2024-01-15T04:45:19;32.35;;;10.57;;
61250;SDS011;47126;47.508;8.590;2024-01-15T04:47:47;25.40;;;9.25;;
61250;SDS011;47126;47.508;8.590;2024-01-15T04:50:13;30.17;;;10.40;;
61250;SDS011;47126;47.508;8.590;2024-01-15T04:52:39;33.65;;;11.02;;
61250;SDS011;47126;47.508;8.590;2024-01-15T04:55:05;31.60;;;11.23;;
61250;SDS011;47126;47.508;8.590;2024-01-15T04:57:31;28.35;;;10.23;;
61250;SDS011;47126;47.508;8.590;2024-01-15T04:59:58;34.92;;;12.50;;
61250;SDS011;47126;47.508;8.590;2024-01-15T05:02:24;31.10;;;11.85;;
61250;SDS011;47126;47.508;8.590;2024-01-15T05:04:50;29.63;;;11.25;;
61250;SDS011;47126;47.508;8.590;2024-01-15T05:07:16;27.17;;;10.82;;
61250;SDS011;47126;47.508;8.590;2024-01-15T05:09:42;30.20;;;11.32;;
61250;SDS011;47126;47.508;8.590;2024-01-15T05:12:08;29.70;;;10.60;;
61250;SDS011;47126;47.508;8.590;2024-01-15T05:14:34;29.33;;;11.25;;
61250;SDS011;47126;47.508;8.590;2024-01-15T05:17:00;29.40;;;10.82;;
61250;SDS011;47126;47.508;8.590;2024-01-15T05:19:26;29.30;;;10.60;;
61250;SDS011;47126;47.508;8.590;2024-01-15T05:21:52;28.02;;;10.82;;
61250;SDS011;47126;47.508;8.590;2024-01-15T05:24:18;27.10;;;11.13;;
61250;SDS011;47126;47.508;8.590;2024-01-15T05:26:44;31.08;;;10.02;;
61250;SDS011;47126;47.508;8.590;2024-01-15T05:29:10;23.27;;;9.77;;
61250;SDS011;47126;47.508;8.590;2024-01-15T05:31:36;25.27;;;9.35;;
61250;SDS011;47126;47.508;8.590;2024-01-15T05:34:03;29.27;;;9.18;;
61250;SDS011;47126;47.508;8.590;2024-01-15T05:36:29;26.38;;;10.07;;
61250;SDS011;47126;47.508;8.590;2024-01-15T05:38:55;28.98;;;10.10;;
61250;SDS011;47126;47.508;8.590;2024-01-15T05:41:21;24.73;;;9.57;;
61250;SDS011;47126;47.508;8.590;2024-01-15T05:43:47;26.50;;;9.60;;
61250;SDS011;47126;47.508;8.590;2024-01-15T05:46:13;25.80;;;9.60;;
61250;SDS011;47126;47.508;8.590;2024-01-15T05:48:40;30.48;;;10.88;;
61250;SDS011;47126;47.508;8.590;2024-01-15T05:51:06;25.70;;;9.13;;
61250;SDS011;47126;47.508;8.590;2024-01-15T05:53:32;27.23;;;10.50;;
61250;SDS011;47126;47.508;8.590;2024-01-15T05:55:58;30.13;;;11.07;;
61250;SDS011;47126;47.508;8.590;2024-01-15T05:58:26;26.05;;;9.20;;
61250;SDS011;47126;47.508;8.590;2024-01-15T06:00:52;25.10;;;9.43;;
61250;SDS011;47126;47.508;8.590;2024-01-15T06:03:18;25.60;;;9.05;;
61250;SDS011;47126;47.508;8.590;2024-01-15T06:05:44;27.80;;;10.20;;
61250;SDS011;47126;47.508;8.590;2024-01-15T06:08:10;25.40;;;9.60;;
61250;SDS011;47126;47.508;8.590;2024-01-15T06:10:36;27.23;;;9.77;;
61250;SDS011;47126;47.508;8.590;2024-01-15T06:13:02;25.17;;;9.43;;
61250;SDS011;47126;47.508;8.590;2024-01-15T06:15:28;23.58;;;8.60;;
61250;SDS011;47126;47.508;8.590;2024-01-15T06:17:54;23.58;;;8.77;;
61250;SDS011;47126;47.508;8.590;2024-01-15T06:20:20;28.17;;;9.95;;
61250;SDS011;47126;47.508;8.590;2024-01-15T06:22:46;25.23;;;9.30;;
61250;SDS011;47126;47.508;8.590;2024-01-15T06:25:12;26.85;;;9.40;;
61250;SDS011;47126;47.508;8.590;2024-01-15T06:27:38;24.73;;;8.70;;
61250;SDS011;47126;47.508;8.590;2024-01-15T06:30:04;27.42;;;9.57;;
61250;SDS011;47126;47.508;8.590;2024-01-15T06:32:30;23.00;;;8.52;;
61250;SDS011;47126;47.508;8.590;2024-01-15T06:34:57;23.98;;;9.32;;
61250;SDS011;47126;47.508;8.590;2024-01-15T06:37:23;21.15;;;8.40;;
61250;SDS011;47126;47.508;8.590;2024-01-15T06:39:49;21.92;;;8.90;;
61250;SDS011;47126;47.508;8.590;2024-01-15T06:42:15;25.45;;;9.63;;
61250;SDS011;47126;47.508;8.590;2024-01-15T06:44:41;27.48;;;9.90;;
61250;SDS011;47126;47.508;8.590;2024-01-15T06:47:07;22.15;;;8.93;;
61250;SDS011;47126;47.508;8.590;2024-01-15T06:49:33;26.60;;;9.98;;
61250;SDS011;47126;47.508;8.590;2024-01-15T06:51:59;28.27;;;9.05;;
61250;SDS011;47126;47.508;8.590;2024-01-15T06:54:25;22.90;;;9.07;;
61250;SDS011;47126;47.508;8.590;2024-01-15T06:56:51;25.90;;;8.63;;
61250;SDS011;47126;47.508;8.590;2024-01-15T06:59:17;25.23;;;9.88;;
61250;SDS011;47126;47.508;8.590;2024-01-15T07:01:44;22.38;;;8.35;;
61250;SDS011;47126;47.508;8.590;2024-01-15T07:04:10;20.92;;;8.65;;
61250;SDS011;47126;47.508;8.590;2024-01-15T07:06:36;25.30;;;9.35;;
61250;SDS011;47126;47.508;8.590;2024-01-15T07:09:02;24.20;;;8.82;;
61250;SDS011;47126;47.508;8.590;2024-01-15T07:11:28;25.55;;;10.05;;
61250;SDS011;47126;47.508;8.590;2024-01-15T07:13:56;26.92;;;9.60;;
61250;SDS011;47126;47.508;8.590;2024-01-15T07:16:23;25.30;;;9.52;;
61250;SDS011;47126;47.508;8.590;2024-01-15T07:18:51;26.55;;;9.13;;
61250;SDS011;47126;47.508;8.590;2024-01-15T07:21:17;28.23;;;9.40;;
61250;SDS011;47126;47.508;8.590;2024-01-15T07:23:44;29.95;;;9.43;;
61250;SDS011;47126;47.508;8.590;2024-01-15T07:26:10;28.23;;;9.43;;
61250;SDS011;47126;47.508;8.590;2024-01-15T07:28:36;30.77;;;11.20;;
61250;SDS011;47126;47.508;8.590;2024-01-15T07:31:02;21.27;;;9.98;;
61250;SDS011;47126;47.508;8.590;2024-01-15T07:33:29;24.05;;;9.73;;
61250;SDS011;47126;47.508;8.590;2024-01-15T07:35:55;29.40;;;10.38;;
61250;SDS011;47126;47.508;8.590;2024-01-15T07:38:21;25.05;;;9.48;;
61250;SDS011;47126;47.508;8.590;2024-01-15T07:40:47;25.52;;;10.23;;
61250;SDS011;47126;47.508;8.590;2024-01-15T07:43:14;25.85;;;9.60;;
61250;SDS011;47126;47.508;8.590;2024-01-15T07:45:40;27.90;;;10.23;;
61250;SDS011;47126;47.508;8.590;2024-01-15T07:48:06;24.02;;;9.32;;
61250;SDS011;47126;47.508;8.590;2024-01-15T07:50:32;29.00;;;11.13;;
61250;SDS011;47126;47.508;8.590;2024-01-15T07:52:58;29.77;;;10.25;;
61250;SDS011;47126;47.508;8.590;2024-01-15T07:55:24;23.15;;;9.48;;
61250;SDS011;47126;47.508;8.590;2024-01-15T07:57:51;26.83;;;9.88;;
61250;SDS011;47126;47.508;8.590;2024-01-15T08:00:18;23.35;;;9.18;;
61250;SDS011;47126;47.508;8.590;2024-01-15T08:02:44;23.25;;;9.00;;
61250;SDS011;47126;47.508;8.590;2024-01-15T08:05:10;25.40;;;9.98;;
61250;SDS011;47126;47.508;8.590;2024-01-15T08:07:36;24.75;;;9.35;;
61250;SDS011;47126;47.508;8.590;2024-01-15T08:10:03;22.33;;;8.73;;
61250;SDS011;47126;47.508;8.590;2024-01-15T08:12:29;21.50;;;7.88;;
61250;SDS011;47126;47.508;8.590;2024-01-15T08:14:55;21.95;;;8.80;;
61250;SDS011;47126;47.508;8.590;2024-01-15T08:17:21;22.02;;;8.02;;
61250;SDS011;47126;47.508;8.590;2024-01-15T08:19:48;21.58;;;8.60;;
61250;SDS011;47126;47.508;8.590;2024-01-15T08:22:14;22.10;;;8.57;;
61250;SDS011;47126;47.508;8.590;2024-01-15T08:24:40;19.55;;;8.35;;
61250;SDS011;47126;47.508;8.590;2024-01-15T08:27:06;20.92;;;8.57;;
61250;SDS011;47126;47.508;8.590;2024-01-15T08:29:33;20.85;;;7.40;;
61250;SDS011;47126;47.508;8.590;2024-01-15T08:32:00;24.55;;;7.88;;
61250;SDS011;47126;47.508;8.590;2024-01-15T08:34:26;19.00;;;8.45;;
61250;SDS011;47126;47.508;8.590;2024-01-15T08:36:52;21.85;;;8.35;;
61250;SDS011;47126;47.508;8.590;2024-01-15T08:39:18;17.40;;;7.18;;
61250;SDS011;47126;47.508;8.590;2024-01-15T08:41:44;21.27;;;7.15;;
61250;SDS011;47126;47.508;8.590;2024-01-15T08:44:11;19.88;;;7.50;;
61250;SDS011;47126;47.508;8.590;2024-01-15T08:46:38;17.67;;;7.32;;
61250;SDS011;47126;47.508;8.590;2024-01-15T08:49:07;21.70;;;7.90;;
61250;SDS011;47126;47.508;8.590;2024-01-15T08:51:33;22.80;;;7.55;;
61250;SDS011;47126;47.508;8.590;2024-01-15T08:53:59;18.40;;;6.90;;
61250;SDS011;47126;47.508;8.590;2024-01-15T08:56:25;18.90;;;7.07;;
61250;SDS011;47126;47.508;8.590;2024-01-15T08:58:52;16.95;;;7.13;;
61250;SDS011;47126;47.508;8.590;2024-01-15T09:01:18;19.60;;;7.63;;
61250;SDS011;47126;47.508;8.590;2024-01-15T09:03:44;22.23;;;8.02;;
61250;SDS011;47126;47.508;8.590;2024-01-15T09:06:11;21.40;;;8.20;;
61250;SDS011;47126;47.508;8.590;2024-01-15T09:08:37;20.13;;;7.38;;
61250;SDS011;47126;47.508;8.590;2024-01-15T09:11:03;18.98;;;7.32;;
61250;SDS011;47126;47.508;8.590;2024-01-15T09:13:29;18.02;;;7.05;;
61250;SDS011;47126;47.508;8.590;2024-01-15T09:15:56;19.20;;;7.63;;
61250;SDS011;47126;47.508;8.590;2024-01-15T09:18:22;18.80;;;7.35;;
61250;SDS011;47126;47.508;8.590;2024-01-15T09:20:48;17.55;;;7.07;;
61250;SDS011;47126;47.508;8.590;2024-01-15T09:23:15;17.20;;;6.53;;
61250;SDS011;47126;47.508;8.590;2024-01-15T09:25:41;17.88;;;6.97;;
61250;SDS011;47126;47.508;8.590;2024-01-15T09:28:07;21.10;;;8.07;;
61250;SDS011;47126;47.508;8.590;2024-01-15T09:30:33;19.75;;;7.70;;
61250;SDS011;47126;47.508;8.590;2024-01-15T09:32:59;18.75;;;7.32;;
61250;SDS011;47126;47.508;8.590;2024-01-15T09:35:25;16.52;;;6.57;;
61250;SDS011;47126;47.508;8.590;2024-01-15T09:37:52;17.80;;;7.10;;
61250;SDS011;47126;47.508;8.590;2024-01-15T09:40:18;19.55;;;7.78;;
61250;SDS011;47126;47.508;8.590;2024-01-15T09:42:45;18.33;;;6.82;;
61250;SDS011;47126;47.508;8.590;2024-01-15T09:45:12;18.05;;;6.35;;
61250;SDS011;47126;47.508;8.590;2024-01-15T09:47:38;15.18;;;6.00;;
61250;SDS011;47126;47.508;8.590;2024-01-15T09:50:04;17.17;;;6.65;;
61250;SDS011;47126;47.508;8.590;2024-01-15T09:52:30;16.00;;;7.00;;
61250;SDS011;47126;47.508;8.590;2024-01-15T09:54:59;20.73;;;7.05;;
61250;SDS011;47126;47.508;8.590;2024-01-15T09:57:28;16.85;;;6.68;;
61250;SDS011;47126;47.508;8.590;2024-01-15T09:59:54;16.73;;;7.32;;
61250;SDS011;47126;47.508;8.590;2024-01-15T10:02:23;16.92;;;7.15;;
61250;SDS011;47126;47.508;8.590;2024-01-15T10:04:49;16.20;;;7.38;;
61250;SDS011;47126;47.508;8.590;2024-01-15T10:07:16;18.00;;;6.00;;
61250;SDS011;47126;47.508;8.590;2024-01-15T10:09:44;18.75;;;6.25;;
61250;SDS011;47126;47.508;8.590;2024-01-15T10:12:10;17.05;;;6.22;;
61250;SDS011;47126;47.508;8.590;2024-01-15T10:14:37;16.70;;;7.13;;
61250;SDS011;47126;47.508;8.590;2024-01-15T10:17:13;16.75;;;6.50;;
61250;SDS011;47126;47.508;8.590;2024-01-15T10:19:42;17.40;;;6.75;;
61250;SDS011;47126;47.508;8.590;2024-01-15T10:22:09;16.88;;;6.85;;
61250;SDS011;47126;47.508;8.590;2024-01-15T10:24:36;17.05;;;6.35;;
61250;SDS011;47126;47.508;8.590;2024-01-15T10:27:05;15.73;;;6.93;;
61250;SDS011;47126;47.508;8.590;2024-01-15T10:29:32;20.27;;;7.03;;
61250;SDS011;47126;47.508;8.590;2024-01-15T10:31:58;15.85;;;6.50;;
61250;SDS011;47126;47.508;8.590;2024-01-15T10:34:26;17.70;;;7.93;;
61250;SDS011;47126;47.508;8.590;2024-01-15T10:36:53;19.38;;;6.25;;
61250;SDS011;47126;47.508;8.590;2024-01-15T10:39:22;17.13;;;6.07;;
61250;SDS011;47126;47.508;8.590;2024-01-15T10:41:51;13.75;;;5.63;;
61250;SDS011;47126;47.508;8.590;2024-01-15T10:44:17;19.40;;;6.70;;
61250;SDS011;47126;47.508;8.590;2024-01-15T10:46:44;15.52;;;6.15;;
61250;SDS011;47126;47.508;8.590;2024-01-15T10:49:11;14.00;;;6.25;;
61250;SDS011;47126;47.508;8.590;2024-01-15T10:51:40;12.25;;;5.55;;
61250;SDS011;47126;47.508;8.590;2024-01-15T10:54:08;11.77;;;5.30;;
61250;SDS011;47126;47.508;8.590;2024-01-15T10:56:39;11.23;;;5.10;;
61250;SDS011;47126;47.508;8.590;2024-01-15T10:59:05;14.18;;;5.30;;
61250;SDS011;47126;47.508;8.590;2024-01-15T11:01:33;11.95;;;4.60;;
61250;SDS011;47126;47.508;8.590;2024-01-15T11:03:59;12.98;;;5.05;;
61250;SDS011;47126;47.508;8.590;2024-01-15T11:06:25;10.77;;;5.07;;
61250;SDS011;47126;47.508;8.590;2024-01-15T11:08:54;12.50;;;4.60;;
61250;SDS011;47126;47.508;8.590;2024-01-15T11:11:21;10.88;;;4.82;;
61250;SDS011;47126;47.508;8.590;2024-01-15T11:13:48;10.57;;;4.38;;
61250;SDS011;47126;47.508;8.590;2024-01-15T11:16:16;10.70;;;4.72;;
61250;SDS011;47126;47.508;8.590;2024-01-15T11:19:16;10.30;;;4.95;;
61250;SDS011;47126;47.508;8.590;2024-01-15T11:21:35;9.55;;;4.72;;
61250;SDS011;47126;47.508;8.590;2024-01-15T11:24:07;9.98;;;4.47;;
61250;SDS011;47126;47.508;8.590;2024-01-15T11:29:03;13.27;;;4.25;;
61250;SDS011;47126;47.508;8.590;2024-01-15T11:31:29;9.55;;;5.00;;
61250;SDS011;47126;47.508;8.590;2024-01-15T11:33:55;9.63;;;4.32;;
61250;SDS011;47126;47.508;8.590;2024-01-15T11:37:00;12.40;;;4.22;;
61250;SDS011;47126;47.508;8.590;2024-01-15T11:41:56;12.55;;;4.68;;
61250;SDS011;47126;47.508;8.590;2024-01-15T11:44:22;10.85;;;4.78;;
61250;SDS011;47126;47.508;8.590;2024-01-15T11:47:01;10.20;;;4.22;;
61250;SDS011;47126;47.508;8.590;2024-01-15T11:52:12;10.20;;;5.25;;
61250;SDS011;47126;47.508;8.590;2024-01-15T11:54:41;11.88;;;4.65;;
61250;SDS011;47126;47.508;8.590;2024-01-15T11:57:11;9.70;;;4.40;;
61250;SDS011;47126;47.508;8.590;2024-01-15T11:59:41;9.73;;;3.78;;
61250;SDS011;47126;47.508;8.590;2024-01-15T12:02:08;9.00;;;4.63;;
61250;SDS011;47126;47.508;8.590;2024-01-15T12:04:36;10.68;;;4.88;;
61250;SDS011;47126;47.508;8.590;2024-01-15T12:07:07;11.55;;;4.70;;
61250;SDS011;47126;47.508;8.590;2024-01-15T12:09:33;9.30;;;4.70;;
61250;SDS011;47126;47.508;8.590;2024-01-15T12:12:02;12.38;;;4.80;;
61250;SDS011;47126;47.508;8.590;2024-01-15T12:14:31;9.98;;;4.38;;
61250;SDS011;47126;47.508;8.590;2024-01-15T12:16:57;12.18;;;4.35;;
61250;SDS011;47126;47.508;8.590;2024-01-15T12:19:23;9.63;;;4.40;;
61250;SDS011;47126;47.508;8.590;2024-01-15T12:21:52;11.93;;;4.85;;
61250;SDS011;47126;47.508;8.590;2024-01-15T12:24:18;9.85;;;4.43;;
61250;SDS011;47126;47.508;8.590;2024-01-15T12:26:44;11.30;;;4.60;;
61250;SDS011;47126;47.508;8.590;2024-01-15T12:29:11;8.90;;;3.95;;
61250;SDS011;47126;47.508;8.590;2024-01-15T12:31:37;13.77;;;4.30;;
61250;SDS011;47126;47.508;8.590;2024-01-15T12:34:03;11.45;;;4.47;;
61250;SDS011;47126;47.508;8.590;2024-01-15T12:36:32;10.15;;;4.78;;
61250;SDS011;47126;47.508;8.590;2024-01-15T12:39:01;10.25;;;4.50;;
61250;SDS011;47126;47.508;8.590;2024-01-15T12:41:28;10.40;;;4.85;;
61250;SDS011;47126;47.508;8.590;2024-01-15T12:43:54;14.43;;;5.25;;
61250;SDS011;47126;47.508;8.590;2024-01-15T12:46:20;9.75;;;4.70;;
61250;SDS011;47126;47.508;8.590;2024-01-15T12:48:46;13.05;;;4.55;;
61250;SDS011;47126;47.508;8.590;2024-01-15T12:51:12;10.20;;;4.05;;
61250;SDS011;47126;47.508;8.590;2024-01-15T12:53:38;10.20;;;4.60;;
61250;SDS011;47126;47.508;8.590;2024-01-15T12:56:04;10.32;;;4.18;;
61250;SDS011;47126;47.508;8.590;2024-01-15T12:58:30;11.40;;;4.80;;
61250;SDS011;47126;47.508;8.590;2024-01-15T13:00:56;12.07;;;4.80;;
61250;SDS011;47126;47.508;8.590;2024-01-15T13:03:28;10.52;;;4.15;;
61250;SDS011;47126;47.508;8.590;2024-01-15T13:05:54;11.93;;;4.78;;
61250;SDS011;47126;47.508;8.590;2024-01-15T13:08:20;11.27;;;5.10;;
61250;SDS011;47126;47.508;8.590;2024-01-15T13:10:48;10.13;;;4.50;;
61250;SDS011;47126;47.508;8.590;2024-01-15T13:13:16;9.80;;;4.90;;
61250;SDS011;47126;47.508;8.590;2024-01-15T13:15:42;10.75;;;4.40;;
61250;SDS011;47126;47.508;8.590;2024-01-15T13:18:09;11.35;;;4.75;;
61250;SDS011;47126;47.508;8.590;2024-01-15T13:20:35;11.52;;;4.68;;
61250;SDS011;47126;47.508;8.590;2024-01-15T13:23:01;11.32;;;4.03;;
61250;SDS011;47126;47.508;8.590;2024-01-15T13:25:28;12.10;;;4.95;;
61250;SDS011;47126;47.508;8.590;2024-01-15T13:27:54;13.98;;;5.40;;
61250;SDS011;47126;47.508;8.590;2024-01-15T13:30:21;15.70;;;5.88;;
61250;SDS011;47126;47.508;8.590;2024-01-15T13:32:47;12.90;;;5.45;;
61250;SDS011;47126;47.508;8.590;2024-01-15T13:35:13;15.25;;;5.63;;
61250;SDS011;47126;47.508;8.590;2024-01-15T13:37:39;18.40;;;7.25;;
61250;SDS011;47126;47.508;8.590;2024-01-15T13:40:08;18.80;;;6.93;;
61250;SDS011;47126;47.508;8.590;2024-01-15T13:42:35;21.35;;;8.65;;
61250;SDS011;47126;47.508;8.590;2024-01-15T13:45:04;19.70;;;8.88;;
61250;SDS011;47126;47.508;8.590;2024-01-15T13:47:31;23.83;;;8.95;;
61250;SDS011;47126;47.508;8.590;2024-01-15T13:50:04;20.38;;;9.75;;
61250;SDS011;47126;47.508;8.590;2024-01-15T13:52:30;24.73;;;9.75;;
61250;SDS011;47126;47.508;8.590;2024-01-15T13:54:56;28.40;;;9.98;;
61250;SDS011;47126;47.508;8.590;2024-01-15T13:57:22;25.73;;;10.40;;
61250;SDS011;47126;47.508;8.590;2024-01-15T13:59:48;25.75;;;10.27;;
61250;SDS011;47126;47.508;8.590;2024-01-15T14:02:15;24.27;;;9.57;;
61250;SDS011;47126;47.508;8.590;2024-01-15T14:04:41;28.10;;;10.27;;
61250;SDS011;47126;47.508;8.590;2024-01-15T14:07:07;24.88;;;10.50;;
61250;SDS011;47126;47.508;8.590;2024-01-15T14:09:33;26.38;;;10.90;;
61250;SDS011;47126;47.508;8.590;2024-01-15T14:11:59;25.17;;;9.80;;
61250;SDS011;47126;47.508;8.590;2024-01-15T14:14:25;22.73;;;11.07;;
61250;SDS011;47126;47.508;8.590;2024-01-15T14:16:51;31.23;;;12.50;;
61250;SDS011;47126;47.508;8.590;2024-01-15T14:19:18;29.83;;;11.60;;
61250;SDS011;47126;47.508;8.590;2024-01-15T14:21:45;27.02;;;11.07;;
61250;SDS011;47126;47.508;8.590;2024-01-15T14:24:11;30.73;;;12.15;;
61250;SDS011;47126;47.508;8.590;2024-01-15T14:26:37;32.15;;;11.73;;
61250;SDS011;47126;47.508;8.590;2024-01-15T14:29:03;29.38;;;11.90;;
61250;SDS011;47126;47.508;8.590;2024-01-15T14:31:30;26.65;;;11.07;;